sensor_id;sensor_type;location;lat;lon;timestamp;pressure;altitude;pressure_sealevel;temperature;humidity
6532;BME280;3299;42.004;24.868;2023-01-25T00:00:09;99589.84;;;3.47;100.00
6532;BME280;3299;42.004;24.868;2023-01-25T00:02:34;99583.88;;;3.48;100.00
6532;BME280;3299;42.004;24.868;2023-01-25T00:05:00;99529.50;;;2.99;100.00
6532;BME280;3299;42.004;24.868;2023-01-25T00:07:25;99497.72;;;2.71;100.00
6532;BME280;3299;42.004;24.868;2023-01-25T00:09:50;99571.53;;;3.27;100.00
6532;BME280;3299;42.004;24.868;2023-01-25T00:12:16;99559.75;;;3.20;100.00
6532;BME280;3299;42.004;24.868;2023-01-25T00:14:41;99534.38;;;3.11;100.00
6532;BME280;3299;42.004;24.868;2023-01-25T00:17:07;99583.28;;;3.34;100.00
6532;BME280;3299;42.004;24.868;2023-01-25T00:19:32;99595.31;;;3.31;100.00
6532;BME280;3299;42.004;24.868;2023-01-25T00:21:57;99550.06;;;2.93;100.00
6532;BME280;3299;42.004;24.868;2023-01-25T00:24:23;99582.25;;;3.03;100.00
6532;BME280;3299;42.004;24.868;2023-01-25T00:26:49;99603.47;;;3.08;100.00
6532;BME280;3299;42.004;24.868;2023-01-25T00:29:15;99593.22;;;2.64;100.00
6532;BME280;3299;42.004;24.868;2023-01-25T00:34:50;99547.91;;;2.28;100.00
6532;BME280;3299;42.004;24.868;2023-01-25T00:37:19;99602.16;;;2.42;100.00
6532;BME280;3299;42.004;24.868;2023-01-25T00:39:48;99491.69;;;1.84;100.00
6532;BME280;3299;42.004;24.868;2023-01-25T00:42:14;99536.38;;;2.06;100.00
6532;BME280;3299;42.004;24.868;2023-01-25T00:44:40;99594.50;;;2.42;100.00
6532;BME280;3299;42.004;24.868;2023-01-25T00:47:06;99608.06;;;2.46;100.00
6532;BME280;3299;42.004;24.868;2023-01-25T00:49:32;99561.91;;;2.06;100.00
6532;BME280;3299;42.004;24.868;2023-01-25T00:51:58;99532.53;;;1.83;100.00
6532;BME280;3299;42.004;24.868;2023-01-25T00:54:23;99588.75;;;2.28;100.00
6532;BME280;3299;42.004;24.868;2023-01-25T00:56:49;99586.28;;;2.25;100.00
6532;BME280;3299;42.004;24.868;2023-01-25T00:59:21;99601.63;;;2.22;100.00
6532;BME280;3299;42.004;24.868;2023-01-25T01:01:46;99589.06;;;2.10;100.00
6532;BME280;3299;42.004;24.868;2023-01-25T01:04:12;99609.16;;;2.30;100.00
6532;BME280;3299;42.004;24.868;2023-01-25T01:06:38;99546.53;;;2.09;100.00
6532;BME280;3299;42.004;24.868;2023-01-25T01:09:05;99535.47;;;2.10;100.00
6532;BME280;3299;42.004;24.868;2023-01-25T01:11:31;99576.97;;;2.21;100.00
6532;BME280;3299;42.004;24.868;2023-01-25T01:13:57;99532.41;;;1.90;100.00
6532;BME280;3299;42.004;24.868;2023-01-25T01:16:22;99586.09;;;2.34;100.00
6532;BME280;3299;42.004;24.868;2023-01-25T01:18:48;99533.91;;;2.02;100.00
6532;BME280;3299;42.004;24.868;2023-01-25T01:21:13;99537.25;;;2.05;100.00
6532;BME280;3299;42.004;24.868;2023-01-25T01:23:39;99570.28;;;2.14;100.00
6532;BME280;3299;42.004;24.868;2023-01-25T01:26:08;99580.88;;;2.40;100.00
6532;BME280;3299;42.004;24.868;2023-01-25T01:28:35;99545.44;;;2.24;100.00
6532;BME280;3299;42.004;24.868;2023-01-25T01:31:05;99515.88;;;2.12;100.00
6532;BME280;3299;42.004;24.868;2023-01-25T01:33:31;99510.81;;;2.09;100.00
6532;BME280;3299;42.004;24.868;2023-01-25T01:35:56;99569.91;;;2.35;100.00
6532;BME280;3299;42.004;24.868;2023-01-25T01:38:22;99514.38;;;1.99;100.00
6532;BME280;3299;42.004;24.868;2023-01-25T01:40:48;99458.97;;;1.56;100.00
6532;BME280;3299;42.004;24.868;2023-01-25T01:43:21;99507.56;;;2.01;100.00
6532;BME280;3299;42.004;24.868;2023-01-25T01:51:00;99488.19;;;1.90;100.00
6532;BME280;3299;42.004;24.868;2023-01-25T01:53:28;99527.78;;;2.13;100.00
6532;BME280;3299;42.004;24.868;2023-01-25T01:55:58;99525.97;;;2.18;100.00
6532;BME280;3299;42.004;24.868;2023-01-25T01:58:25;99499.13;;;1.96;100.00
6532;BME280;3299;42.004;24.868;2023-01-25T02:00:51;99567.31;;;2.38;100.00
6532;BME280;3299;42.004;24.868;2023-01-25T02:03:17;99570.66;;;2.40;100.00
6532;BME280;3299;42.004;24.868;2023-01-25T02:06:08;99512.56;;;2.07;100.00
6532;BME280;3299;42.004;24.868;2023-01-25T02:08:37;99546.34;;;2.21;100.00
6532;BME280;3299;42.004;24.868;2023-01-25T02:11:06;99540.38;;;2.21;100.00
6532;BME280;3299;42.004;24.868;2023-01-25T02:13:34;99496.84;;;1.80;100.00
6532;BME280;3299;42.004;24.868;2023-01-25T02:16:02;99522.00;;;2.02;100.00
6532;BME280;3299;42.004;24.868;2023-01-25T02:18:28;99504.38;;;1.89;100.00
6532;BME280;3299;42.004;24.868;2023-01-25T02:20:56;99563.34;;;2.21;100.00
6532;BME280;3299;42.004;24.868;2023-01-25T02:23:40;99556.84;;;2.03;100.00
6532;BME280;3299;42.004;24.868;2023-01-25T02:26:12;99559.22;;;2.14;100.00
6532;BME280;3299;42.004;24.868;2023-01-25T02:31:16;99563.19;;;2.31;100.00
6532;BME280;3299;42.004;24.868;2023-01-25T02:33:42;99505.13;;;1.95;100.00
6532;BME280;3299;42.004;24.868;2023-01-25T02:38:38;99495.72;;;1.97;100.00
6532;BME280;3299;42.004;24.868;2023-01-25T02:41:17;99499.97;;;1.97;100.00
6532;BME280;3299;42.004;24.868;2023-01-25T02:43:48;99554.66;;;2.32;100.00
6532;BME280;3299;42.004;24.868;2023-01-25T02:46:28;99552.91;;;2.34;100.00
6532;BME280;3299;42.004;24.868;2023-01-25T02:48:55;99557.97;;;2.37;100.00
6532;BME280;3299;42.004;24.868;2023-01-25T02:51:22;99529.31;;;2.22;100.00
6532;BME280;3299;42.004;24.868;2023-01-25T02:53:48;99532.03;;;2.13;100.00
6532;BME280;3299;42.004;24.868;2023-01-25T02:56:13;99490.72;;;1.91;100.00
6532;BME280;3299;42.004;24.868;2023-01-25T02:58:39;99501.91;;;1.84;100.00
6532;BME280;3299;42.004;24.868;2023-01-25T03:01:04;99545.88;;;1.98;100.00
6532;BME280;3299;42.004;24.868;2023-01-25T03:03:30;99489.00;;;1.39;100.00
6532;BME280;3299;42.004;24.868;2023-01-25T03:05:55;99527.63;;;1.69;100.00
6532;BME280;3299;42.004;24.868;2023-01-25T03:08:20;99562.03;;;1.99;100.00
6532;BME280;3299;42.004;24.868;2023-01-25T03:10:46;99564.63;;;1.97;100.00
6532;BME280;3299;42.004;24.868;2023-01-25T03:13:11;99554.34;;;2.00;100.00
6532;BME280;3299;42.004;24.868;2023-01-25T03:15:36;99503.91;;;1.64;100.00
6532;BME280;3299;42.004;24.868;2023-01-25T03:18:04;99485.41;;;1.52;100.00
6532;BME280;3299;42.004;24.868;2023-01-25T03:20:30;99491.59;;;1.37;100.00
6532;BME280;3299;42.004;24.868;2023-01-25T03:22:55;99536.84;;;1.78;100.00
6532;BME280;3299;42.004;24.868;2023-01-25T03:25:20;99546.97;;;1.84;100.00
6532;BME280;3299;42.004;24.868;2023-01-25T03:27:46;99486.34;;;1.46;100.00
6532;BME280;3299;42.004;24.868;2023-01-25T03:30:11;99543.53;;;1.86;100.00
6532;BME280;3299;42.004;24.868;2023-01-25T03:32:37;99482.88;;;1.50;100.00
6532;BME280;3299;42.004;24.868;2023-01-25T03:35:03;99526.91;;;1.61;100.00
6532;BME280;3299;42.004;24.868;2023-01-25T03:37:28;99541.38;;;1.61;100.00
6532;BME280;3299;42.004;24.868;2023-01-25T03:39:56;99536.97;;;1.70;100.00
6532;BME280;3299;42.004;24.868;2023-01-25T03:42:22;99442.94;;;0.96;100.00
6532;BME280;3299;42.004;24.868;2023-01-25T03:44:48;99548.22;;;1.59;100.00
6532;BME280;3299;42.004;24.868;2023-01-25T03:47:13;99538.84;;;1.59;100.00
6532;BME280;3299;42.004;24.868;2023-01-25T03:49:39;99545.66;;;1.60;100.00
6532;BME280;3299;42.004;24.868;2023-01-25T03:52:04;99480.72;;;1.26;100.00
6532;BME280;3299;42.004;24.868;2023-01-25T03:54:30;99514.38;;;1.46;100.00
6532;BME280;3299;42.004;24.868;2023-01-25T03:56:55;99566.78;;;1.68;100.00
6532;BME280;3299;42.004;24.868;2023-01-25T03:59:21;99489.25;;;1.22;100.00
6532;BME280;3299;42.004;24.868;2023-01-25T04:01:47;99474.91;;;1.15;100.00
6532;BME280;3299;42.004;24.868;2023-01-25T04:04:12;99497.69;;;1.26;100.00
6532;BME280;3299;42.004;24.868;2023-01-25T04:06:37;99542.41;;;1.49;100.00
6532;BME280;3299;42.004;24.868;2023-01-25T04:09:03;99486.91;;;1.07;100.00
6532;BME280;3299;42.004;24.868;2023-01-25T04:11:29;99534.81;;;1.45;100.00
6532;BME280;3299;42.004;24.868;2023-01-25T04:13:54;99535.47;;;1.57;100.00
6532;BME280;3299;42.004;24.868;2023-01-25T04:16:19;99560.72;;;1.74;100.00
6532;BME280;3299;42.004;24.868;2023-01-25T04:18:45;99538.91;;;1.56;100.00
6532;BME280;3299;42.004;24.868;2023-01-25T04:21:10;99493.56;;;1.17;100.00
6532;BME280;3299;42.004;24.868;2023-01-25T04:23:35;99493.47;;;1.23;100.00
6532;BME280;3299;42.004;24.868;2023-01-25T04:26:05;99498.56;;;1.26;100.00
6532;BME280;3299;42.004;24.868;2023-01-25T04:28:32;99496.00;;;1.25;100.00
6532;BME280;3299;42.004;24.868;2023-01-25T04:30:58;99513.59;;;1.41;100.00
6532;BME280;3299;42.004;24.868;2023-01-25T04:33:23;99557.47;;;1.64;100.00
6532;BME280;3299;42.004;24.868;2023-01-25T04:35:49;99569.16;;;1.79;100.00
6532;BME280;3299;42.004;24.868;2023-01-25T04:38:15;99520.25;;;1.51;100.00
6532;BME280;3299;42.004;24.868;2023-01-25T04:40:41;99504.53;;;1.24;100.00
6532;BME280;3299;42.004;24.868;2023-01-25T04:43:07;99514.75;;;1.22;100.00
6532;BME280;3299;42.004;24.868;2023-01-25T04:45:33;99573.03;;;1.46;100.00
6532;BME280;3299;42.004;24.868;2023-01-25T04:48:02;99572.13;;;1.50;100.00
6532;BME280;3299;42.004;24.868;2023-01-25T04:50:28;99553.41;;;1.51;100.00
6532;BME280;3299;42.004;24.868;2023-01-25T04:52:53;99560.09;;;1.60;100.00
6532;BME280;3299;42.004;24.868;2023-01-25T04:55:19;99513.78;;;1.31;100.00
6532;BME280;3299;42.004;24.868;2023-01-25T04:57:48;99560.13;;;1.57;100.00
6532;BME280;3299;42.004;24.868;2023-01-25T05:00:15;99510.38;;;1.30;100.00
6532;BME280;3299;42.004;24.868;2023-01-25T05:02:41;99549.03;;;1.59;100.00
6532;BME280;3299;42.004;24.868;2023-01-25T05:05:07;99509.56;;;1.28;100.00
6532;BME280;3299;42.004;24.868;2023-01-25T05:07:32;99452.09;;;1.06;100.00
6532;BME280;3299;42.004;24.868;2023-01-25T05:09:58;99504.19;;;1.46;100.00
6532;BME280;3299;42.004;24.868;2023-01-25T05:12:23;99554.81;;;1.72;100.00
6532;BME280;3299;42.004;24.868;2023-01-25T05:14:49;99502.69;;;1.32;100.00
6532;BME280;3299;42.004;24.868;2023-01-25T05:17:14;99505.50;;;1.15;100.00
6532;BME280;3299;42.004;24.868;2023-01-25T05:19:40;99561.09;;;1.50;100.00
6532;BME280;3299;42.004;24.868;2023-01-25T05:22:06;99506.97;;;1.31;100.00
6532;BME280;3299;42.004;24.868;2023-01-25T05:24:35;99576.91;;;1.71;100.00
6532;BME280;3299;42.004;24.868;2023-01-25T05:27:02;99566.88;;;1.59;100.00
6532;BME280;3299;42.004;24.868;2023-01-25T05:29:33;99570.09;;;1.73;100.00
6532;BME280;3299;42.004;24.868;2023-01-25T05:32:07;99572.75;;;1.67;100.00
6532;BME280;3299;42.004;24.868;2023-01-25T05:34:33;99523.88;;;1.38;100.00
6532;BME280;3299;42.004;24.868;2023-01-25T05:36:59;99587.00;;;1.80;100.00
6532;BME280;3299;42.004;24.868;2023-01-25T05:39:25;99520.44;;;1.39;100.00
6532;BME280;3299;42.004;24.868;2023-01-25T05:41:51;99554.69;;;1.79;100.00
6532;BME280;3299;42.004;24.868;2023-01-25T05:44:16;99570.72;;;1.87;100.00
6532;BME280;3299;42.004;24.868;2023-01-25T05:46:41;99524.50;;;1.51;100.00
6532;BME280;3299;42.004;24.868;2023-01-25T05:49:10;99511.06;;;1.41;100.00
6532;BME280;3299;42.004;24.868;2023-01-25T05:51:36;99522.78;;;1.54;100.00
6532;BME280;3299;42.004;24.868;2023-01-25T05:54:06;99521.06;;;1.53;100.00
6532;BME280;3299;42.004;24.868;2023-01-25T05:56:32;99536.16;;;1.70;100.00
6532;BME280;3299;42.004;24.868;2023-01-25T05:58:59;99551.94;;;1.91;100.00
6532;BME280;3299;42.004;24.868;2023-01-25T06:01:26;99542.06;;;1.70;100.00
6532;BME280;3299;42.004;24.868;2023-01-25T06:03:52;99531.13;;;1.64;100.00
6532;BME280;3299;42.004;24.868;2023-01-25T06:06:18;99515.19;;;1.50;100.00
6532;BME280;3299;42.004;24.868;2023-01-25T06:08:44;99584.22;;;1.95;100.00
6532;BME280;3299;42.004;24.868;2023-01-25T06:11:11;99541.97;;;1.76;100.00
6532;BME280;3299;42.004;24.868;2023-01-25T06:13:37;99582.28;;;2.09;100.00
6532;BME280;3299;42.004;24.868;2023-01-25T06:16:03;99592.25;;;2.24;100.00
6532;BME280;3299;42.004;24.868;2023-01-25T06:18:30;99546.66;;;2.02;100.00
6532;BME280;3299;42.004;24.868;2023-01-25T06:20:56;99560.00;;;2.17;100.00
6532;BME280;3299;42.004;24.868;2023-01-25T06:23:22;99594.44;;;2.45;100.00
6532;BME280;3299;42.004;24.868;2023-01-25T06:25:48;99532.75;;;2.19;100.00
6532;BME280;3299;42.004;24.868;2023-01-25T06:28:13;99585.22;;;2.37;100.00
6532;BME280;3299;42.004;24.868;2023-01-25T06:30:39;99600.28;;;2.50;100.00
6532;BME280;3299;42.004;24.868;2023-01-25T06:33:04;99544.53;;;2.26;100.00
6532;BME280;3299;42.004;24.868;2023-01-25T06:35:30;99539.47;;;2.23;100.00
6532;BME280;3299;42.004;24.868;2023-01-25T06:37:57;99601.31;;;2.40;100.00
6532;BME280;3299;42.004;24.868;2023-01-25T06:40:22;99590.19;;;2.44;100.00
6532;BME280;3299;42.004;24.868;2023-01-25T06:42:48;99595.38;;;2.40;100.00
6532;BME280;3299;42.004;24.868;2023-01-25T06:45:13;99493.41;;;1.82;100.00
6532;BME280;3299;42.004;24.868;2023-01-25T06:47:39;99588.66;;;2.34;100.00
6532;BME280;3299;42.004;24.868;2023-01-25T06:50:05;99549.06;;;2.11;100.00
6532;BME280;3299;42.004;24.868;2023-01-25T06:52:30;99561.53;;;2.27;100.00
6532;BME280;3299;42.004;24.868;2023-01-25T06:54:56;99537.09;;;2.16;100.00
6532;BME280;3299;42.004;24.868;2023-01-25T06:57:22;99605.94;;;2.69;100.00
6532;BME280;3299;42.004;24.868;2023-01-25T06:59:47;99585.72;;;2.57;100.00
6532;BME280;3299;42.004;24.868;2023-01-25T07:02:14;99584.09;;;2.51;100.00
6532;BME280;3299;42.004;24.868;2023-01-25T07:04:39;99539.47;;;2.23;100.00
6532;BME280;3299;42.004;24.868;2023-01-25T07:07:07;99593.56;;;2.46;100.00
6532;BME280;3299;42.004;24.868;2023-01-25T07:09:33;99595.97;;;2.54;100.00
6532;BME280;3299;42.004;24.868;2023-01-25T07:11:59;99595.31;;;2.43;100.00
6532;BME280;3299;42.004;24.868;2023-01-25T07:14:26;99549.13;;;2.08;100.00
6532;BME280;3299;42.004;24.868;2023-01-25T07:16:51;99602.50;;;2.21;100.00
6532;BME280;3299;42.004;24.868;2023-01-25T07:19:17;99590.34;;;2.35;100.00
6532;BME280;3299;42.004;24.868;2023-01-25T07:21:42;99595.41;;;2.38;100.00
6532;BME280;3299;42.004;24.868;2023-01-25T07:24:13;99545.91;;;1.97;100.00
6532;BME280;3299;42.004;24.868;2023-01-25T07:26:39;99544.19;;;1.99;100.00
6532;BME280;3299;42.004;24.868;2023-01-25T07:29:04;99603.94;;;2.37;100.00
6532;BME280;3299;42.004;24.868;2023-01-25T07:31:29;99615.06;;;2.33;100.00
6532;BME280;3299;42.004;24.868;2023-01-25T07:33:56;99594.84;;;2.21;100.00
6532;BME280;3299;42.004;24.868;2023-01-25T07:36:22;99627.72;;;2.39;100.00
6532;BME280;3299;42.004;24.868;2023-01-25T07:38:48;99568.16;;;1.87;100.00
6532;BME280;3299;42.004;24.868;2023-01-25T07:41:16;99553.06;;;1.75;100.00
6532;BME280;3299;42.004;24.868;2023-01-25T07:43:42;99554.63;;;1.84;100.00
6532;BME280;3299;42.004;24.868;2023-01-25T07:46:09;99557.97;;;1.87;100.00
6532;BME280;3299;42.004;24.868;2023-01-25T07:48:38;99551.34;;;1.76;100.00
6532;BME280;3299;42.004;24.868;2023-01-25T07:51:06;99552.88;;;1.86;100.00
6532;BME280;3299;42.004;24.868;2023-01-25T07:53:55;99596.63;;;2.15;100.00
6532;BME280;3299;42.004;24.868;2023-01-25T07:56:24;99557.72;;;2.04;100.00
6532;BME280;3299;42.004;24.868;2023-01-25T07:58:51;99627.78;;;2.36;100.00
6532;BME280;3299;42.004;24.868;2023-01-25T08:01:19;99623.72;;;2.25;100.00
6532;BME280;3299;42.004;24.868;2023-01-25T08:03:46;99610.97;;;2.23;100.00
6532;BME280;3299;42.004;24.868;2023-01-25T08:06:12;99620.97;;;2.35;100.00
6532;BME280;3299;42.004;24.868;2023-01-25T08:08:40;99627.94;;;2.27;100.00
6532;BME280;3299;42.004;24.868;2023-01-25T08:13:33;99631.53;;;2.16;100.00
6532;BME280;3299;42.004;24.868;2023-01-25T08:15:58;99625.47;;;2.23;100.00
6532;BME280;3299;42.004;24.868;2023-01-25T08:18:24;99571.56;;;1.89;100.00
6532;BME280;3299;42.004;24.868;2023-01-25T08:20:50;99618.00;;;2.09;100.00
6532;BME280;3299;42.004;24.868;2023-01-25T08:23:15;99574.75;;;2.00;100.00
6532;BME280;3299;42.004;24.868;2023-01-25T08:25:41;99615.09;;;2.32;100.00
6532;BME280;3299;42.004;24.868;2023-01-25T08:28:06;99591.91;;;1.94;100.00
6532;BME280;3299;42.004;24.868;2023-01-25T08:30:32;99638.84;;;2.37;100.00
6532;BME280;3299;42.004;24.868;2023-01-25T08:32:58;99614.25;;;2.31;100.00
6532;BME280;3299;42.004;24.868;2023-01-25T08:35:23;99571.16;;;2.13;100.00
6532;BME280;3299;42.004;24.868;2023-01-25T08:37:48;99622.41;;;2.51;100.00
6532;BME280;3299;42.004;24.868;2023-01-25T08:40:14;99623.34;;;2.47;100.00
6532;BME280;3299;42.004;24.868;2023-01-25T08:42:39;99511.25;;;1.82;100.00
6532;BME280;3299;42.004;24.868;2023-01-25T08:45:08;99609.72;;;2.47;100.00
6532;BME280;3299;42.004;24.868;2023-01-25T08:47:33;99623.97;;;2.58;100.00
6532;BME280;3299;42.004;24.868;2023-01-25T08:49:59;99568.22;;;2.34;100.00
6532;BME280;3299;42.004;24.868;2023-01-25T08:52:25;99605.53;;;2.43;100.00
6532;BME280;3299;42.004;24.868;2023-01-25T08:54:50;99543.09;;;2.13;100.00
6532;BME280;3299;42.004;24.868;2023-01-25T08:57:16;99561.84;;;2.11;100.00
6532;BME280;3299;42.004;24.868;2023-01-25T08:59:41;99625.03;;;2.48;100.00
6532;BME280;3299;42.004;24.868;2023-01-25T09:02:10;99593.63;;;2.43;100.00
6532;BME280;3299;42.004;24.868;2023-01-25T09:04:36;99607.16;;;2.48;100.00
6532;BME280;3299;42.004;24.868;2023-01-25T09:07:01;99600.38;;;2.47;100.00
6532;BME280;3299;42.004;24.868;2023-01-25T09:09:26;99545.41;;;2.27;100.00
6532;BME280;3299;42.004;24.868;2023-01-25T09:11:54;99555.53;;;2.31;100.00
6532;BME280;3299;42.004;24.868;2023-01-25T09:14:19;99621.97;;;2.75;100.00
6532;BME280;3299;42.004;24.868;2023-01-25T09:16:45;99607.06;;;2.53;100.00
6532;BME280;3299;42.004;24.868;2023-01-25T09:19:10;99549.78;;;2.19;100.00
6532;BME280;3299;42.004;24.868;2023-01-25T09:21:35;99590.88;;;2.54;100.00
6532;BME280;3299;42.004;24.868;2023-01-25T09:24:01;99592.41;;;2.62;100.00
6532;BME280;3299;42.004;24.868;2023-01-25T09:26:26;99584.59;;;2.71;100.00
6532;BME280;3299;42.004;24.868;2023-01-25T09:28:53;99538.13;;;2.51;100.00
6532;BME280;3299;42.004;24.868;2023-01-25T09:31:20;99535.22;;;2.69;100.00
6532;BME280;3299;42.004;24.868;2023-01-25T09:33:46;99569.03;;;2.83;100.00
6532;BME280;3299;42.004;24.868;2023-01-25T09:36:11;99551.44;;;2.67;100.00
6532;BME280;3299;42.004;24.868;2023-01-25T09:38:37;99510.88;;;2.52;100.00
6532;BME280;3299;42.004;24.868;2023-01-25T09:46:51;99565.25;;;3.01;100.00
6532;BME280;3299;42.004;24.868;2023-01-25T09:49:25;99564.56;;;2.93;100.00
6532;BME280;3299;42.004;24.868;2023-01-25T09:54:30;99448.69;;;2.10;100.00
6532;BME280;3299;42.004;24.868;2023-01-25T09:57:03;99446.09;;;2.13;100.00
6532;BME280;3299;42.004;24.868;2023-01-25T09:59:29;99539.91;;;2.90;100.00
6532;BME280;3299;42.004;24.868;2023-01-25T10:02:22;99547.59;;;2.90;100.00
6532;BME280;3299;42.004;24.868;2023-01-25T10:04:53;99520.41;;;2.86;100.00
6532;BME280;3299;42.004;24.868;2023-01-25T10:07:27;99545.75;;;2.97;100.00
6532;BME280;3299;42.004;24.868;2023-01-25T10:10:09;99548.06;;;3.09;100.00
6532;BME280;3299;42.004;24.868;2023-01-25T10:12:36;99474.81;;;2.67;100.00
6532;BME280;3299;42.004;24.868;2023-01-25T10:15:16;99510.25;;;2.83;100.00
6532;BME280;3299;42.004;24.868;2023-01-25T10:17:42;99504.28;;;2.83;100.00
6532;BME280;3299;42.004;24.868;2023-01-25T10:20:24;99472.78;;;2.82;100.00
6532;BME280;3299;42.004;24.868;2023-01-25T10:25:29;99522.78;;;2.95;100.00
6532;BME280;3299;42.004;24.868;2023-01-25T10:28:13;99507.56;;;2.89;100.00
6532;BME280;3299;42.004;24.868;2023-01-25T10:30:52;99515.72;;;3.06;100.00
6532;BME280;3299;42.004;24.868;2023-01-25T10:33:21;99482.66;;;2.99;100.00
6532;BME280;3299;42.004;24.868;2023-01-25T10:35:48;99450.03;;;2.70;100.00
6532;BME280;3299;42.004;24.868;2023-01-25T10:43:33;99488.13;;;3.20;100.00
6532;BME280;3299;42.004;24.868;2023-01-25T10:46:00;99426.81;;;2.81;100.00
6532;BME280;3299;42.004;24.868;2023-01-25T10:48:29;99450.06;;;3.08;100.00
6532;BME280;3299;42.004;24.868;2023-01-25T10:50:57;99402.50;;;2.63;100.00
6532;BME280;3299;42.004;24.868;2023-01-25T10:53:37;99474.00;;;3.04;100.00
6532;BME280;3299;42.004;24.868;2023-01-25T10:58:40;99409.84;;;2.78;100.00
6532;BME280;3299;42.004;24.868;2023-01-25T11:01:09;99398.88;;;2.73;100.00
6532;BME280;3299;42.004;24.868;2023-01-25T11:03:40;99450.16;;;3.04;100.00
6532;BME280;3299;42.004;24.868;2023-01-25T11:06:07;99464.31;;;3.18;100.00
6532;BME280;3299;42.004;24.868;2023-01-25T11:08:38;99419.63;;;2.98;100.00
6532;BME280;3299;42.004;24.868;2023-01-25T11:13:48;99367.13;;;2.83;100.00
6532;BME280;3299;42.004;24.868;2023-01-25T11:16:31;99433.28;;;3.33;100.00
6532;BME280;3299;42.004;24.868;2023-01-25T11:18:58;99413.28;;;3.14;99.71
6532;BME280;3299;42.004;24.868;2023-01-25T11:21:29;99395.28;;;2.82;100.00
6532;BME280;3299;42.004;24.868;2023-01-25T11:26:30;99379.22;;;3.13;100.00
6532;BME280;3299;42.004;24.868;2023-01-25T11:31:43;99324.81;;;2.72;100.00
6532;BME280;3299;42.004;24.868;2023-01-25T11:34:15;99357.41;;;2.99;99.06
6532;BME280;3299;42.004;24.868;2023-01-25T11:36:54;99417.09;;;3.33;100.00
6532;BME280;3299;42.004;24.868;2023-01-25T11:42:35;99413.88;;;3.25;100.00
6532;BME280;3299;42.004;24.868;2023-01-25T11:56:05;99406.28;;;3.57;98.51
6532;BME280;3299;42.004;24.868;2023-01-25T12:01:10;99401.16;;;3.23;100.00
6532;BME280;3299;42.004;24.868;2023-01-25T12:03:45;99393.31;;;3.29;99.96
6532;BME280;3299;42.004;24.868;2023-01-25T12:06:21;99388.25;;;3.28;100.00
6532;BME280;3299;42.004;24.868;2023-01-25T12:14:40;99381.66;;;3.51;100.00
6532;BME280;3299;42.004;24.868;2023-01-25T12:17:23;99321.19;;;3.15;100.00
6532;BME280;3299;42.004;24.868;2023-01-25T12:25:24;99305.53;;;3.29;98.84
6532;BME280;3299;42.004;24.868;2023-01-25T12:33:11;99351.19;;;3.44;98.96
6532;BME280;3299;42.004;24.868;2023-01-25T12:35:58;99298.84;;;3.23;96.95
6532;BME280;3299;42.004;24.868;2023-01-25T12:38:33;99350.81;;;3.57;99.23
6532;BME280;3299;42.004;24.868;2023-01-25T12:43:47;99292.53;;;3.36;100.00
6532;BME280;3299;42.004;24.868;2023-01-25T12:46:25;99310.13;;;3.48;100.00
6532;BME280;3299;42.004;24.868;2023-01-25T12:48:53;99293.44;;;3.35;98.53
6532;BME280;3299;42.004;24.868;2023-01-25T12:51:23;99311.75;;;3.52;100.00
6532;BME280;3299;42.004;24.868;2023-01-25T12:53:53;99304.25;;;3.45;97.18
6532;BME280;3299;42.004;24.868;2023-01-25T12:59:15;99351.16;;;3.77;98.82
6532;BME280;3299;42.004;24.868;2023-01-25T13:01:57;99308.94;;;3.60;97.94
6532;BME280;3299;42.004;24.868;2023-01-25T13:07:36;99357.72;;;3.87;96.56
6532;BME280;3299;42.004;24.868;2023-01-25T13:10:22;99306.19;;;3.67;96.63
6532;BME280;3299;42.004;24.868;2023-01-25T13:13:00;99240.19;;;3.17;96.14
6532;BME280;3299;42.004;24.868;2023-01-25T13:23:42;99344.19;;;3.82;97.02
6532;BME280;3299;42.004;24.868;2023-01-25T13:28:49;99336.06;;;3.97;93.94
6532;BME280;3299;42.004;24.868;2023-01-25T13:34:12;99348.59;;;3.77;93.28
6532;BME280;3299;42.004;24.868;2023-01-25T13:44:37;99274.13;;;3.22;93.91
6532;BME280;3299;42.004;24.868;2023-01-25T13:47:10;99283.50;;;3.23;93.97
6532;BME280;3299;42.004;24.868;2023-01-25T13:49:40;99293.06;;;3.15;93.60
6532;BME280;3299;42.004;24.868;2023-01-25T13:52:06;99280.84;;;2.94;93.28
6532;BME280;3299;42.004;24.868;2023-01-25T13:54:32;99336.97;;;2.97;94.60
6532;BME280;3299;42.004;24.868;2023-01-25T13:57:05;99329.16;;;3.03;94.99
6532;BME280;3299;42.004;24.868;2023-01-25T13:59:31;99313.94;;;2.99;96.62
6532;BME280;3299;42.004;24.868;2023-01-25T14:01:57;99265.66;;;2.88;95.42
6532;BME280;3299;42.004;24.868;2023-01-25T14:04:24;99337.53;;;3.43;93.42
6532;BME280;3299;42.004;24.868;2023-01-25T14:06:55;99275.88;;;2.88;95.75
6532;BME280;3299;42.004;24.868;2023-01-25T14:09:23;99319.25;;;3.25;95.67
6532;BME280;3299;42.004;24.868;2023-01-25T14:14:34;99273.28;;;3.23;94.09
6532;BME280;3299;42.004;24.868;2023-01-25T14:17:22;99340.88;;;3.45;91.49
6532;BME280;3299;42.004;24.868;2023-01-25T14:19:49;99328.19;;;3.42;92.09
6532;BME280;3299;42.004;24.868;2023-01-25T14:25:13;99334.25;;;3.38;92.72
6532;BME280;3299;42.004;24.868;2023-01-25T14:27:42;99327.44;;;3.39;92.21
6532;BME280;3299;42.004;24.868;2023-01-25T14:30:17;99307.38;;;3.22;93.93
6532;BME280;3299;42.004;24.868;2023-01-25T14:32:43;99268.34;;;3.16;93.90
6532;BME280;3299;42.004;24.868;2023-01-25T14:35:40;99327.34;;;3.42;93.63
6532;BME280;3299;42.004;24.868;2023-01-25T14:38:39;99325.38;;;3.51;93.61
6532;BME280;3299;42.004;24.868;2023-01-25T14:41:26;99323.22;;;3.36;93.80
6532;BME280;3299;42.004;24.868;2023-01-25T14:43:55;99351.06;;;3.48;94.34
6532;BME280;3299;42.004;24.868;2023-01-25T14:46:28;99348.47;;;3.50;94.81
6532;BME280;3299;42.004;24.868;2023-01-25T14:49:18;99341.44;;;3.58;92.84
6532;BME280;3299;42.004;24.868;2023-01-25T14:54:30;99270.44;;;3.34;92.96
6532;BME280;3299;42.004;24.868;2023-01-25T14:59:32;99337.19;;;3.57;93.38
6532;BME280;3299;42.004;24.868;2023-01-25T15:02:22;99293.47;;;3.34;93.12
6532;BME280;3299;42.004;24.868;2023-01-25T15:05:00;99316.88;;;3.51;93.21
6532;BME280;3299;42.004;24.868;2023-01-25T15:07:32;99275.09;;;3.20;94.32
6532;BME280;3299;42.004;24.868;2023-01-25T15:15:28;99317.16;;;3.40;93.94
6532;BME280;3299;42.004;24.868;2023-01-25T15:17:54;99332.41;;;3.45;95.14
6532;BME280;3299;42.004;24.868;2023-01-25T15:20:37;99334.63;;;3.57;93.38